Time;durP1;ratioP1;P1;durP2;ratioP2;P2;SDS_P1;SDS_P2;PMS_P1;PMS_P2;Temp;Humidity;BMP_temperature;BMP_pressure;BME280_temperature;BME280_humidity;BME280_pressure;Samples;Min_cycle;Max_cycle;Signal;HPM_P1;HPM_P2
2022/06/04 00:01:22;;;;;;;;;;;20.40;60.60;;;;;;5123295;28;19930;-46
2022/06/04 00:03:48;;;;;;;;;;;20.30;60.90;;;;;;5128819;28;19931;-48
2022/06/04 00:06:14;;;;;;;;;;;20.30;61.00;;;;;;5105103;28;19923;-46
2022/06/04 00:08:40;;;;;;;;;;;20.40;60.90;;;;;;5125110;28;19923;-53
2022/06/04 00:16:35;;;;;;;;;;;20.30;60.80;;;;;;5122978;28;20298;-47
2022/06/04 00:19:00;;;;;;;;;;;20.30;60.50;;;;;;5128374;28;20018;-52
2022/06/04 00:21:26;;;;;;;;;;;20.20;60.90;;;;;;5104585;28;20014;-47
2022/06/04 00:23:52;;;;;;;;;;;20.30;60.80;;;;;;5128701;28;19924;-47
2022/06/04 00:26:18;;;;;;;;;;;20.30;60.80;;;;;;5122933;28;19972;-47
2022/06/04 00:28:46;;;;;;;;;;;20.30;60.70;;;;;;5121385;28;20363;-46
2022/06/04 00:31:11;;;;;;;;;;;20.30;60.80;;;;;;5126992;28;19929;-45
2022/06/04 00:33:37;;;;;;;;;;;20.30;60.60;;;;;;5122612;28;19931;-46
2022/06/04 00:36:03;;;;;;;;;;;20.30;60.80;;;;;;5122683;28;20164;-47
2022/06/04 00:38:29;;;;;;;;;;;20.30;60.70;;;;;;5128387;28;20418;-47
2022/06/04 00:40:59;;;;;;;;;;;20.20;60.80;;;;;;5122934;28;19927;-47
2022/06/04 00:43:25;;;;;;;;;;;20.30;60.40;;;;;;5127169;28;20431;-55
2022/06/04 00:46:17;;;;;;;;;;;20.20;60.60;;;;;;5123727;28;19927;-49
2022/06/04 00:48:43;;;;;;;;;;;20.30;60.30;;;;;;5080613;28;20014;-46
2022/06/04 00:51:08;;;;;;;;;;;20.30;60.40;;;;;;5127224;28;19934;-51
2022/06/04 00:53:34;;;;;;;;;;;20.20;60.30;;;;;;5123158;28;19930;-48
2022/06/04 00:56:00;;;;;;;;;;;20.20;60.60;;;;;;5103012;28;19985;-47
2022/06/04 00:58:55;;;;;;;;;;;20.00;60.70;;;;;;5127887;28;19929;-48
2022/06/04 01:01:22;;;;;;;;;;;20.10;60.50;;;;;;5102178;28;19971;-51
2022/06/04 01:03:51;;;;;;;;;;;20.10;60.40;;;;;;5122514;28;19950;-47
2022/06/04 01:06:40;;;;;;;;;;;20.20;60.40;;;;;;5125517;28;20002;-50
2022/06/04 01:09:12;;;;;;;;;;;20.20;60.20;;;;;;5105542;28;19923;-47
2022/06/04 01:11:38;;;;;;;;;;;20.10;60.50;;;;;;5121985;28;20450;-48
2022/06/04 01:14:10;;;;;;;;;;;20.10;60.40;;;;;;5127646;28;20026;-46
2022/06/04 01:16:37;;;;;;;;;;;20.00;60.30;;;;;;5122321;28;19923;-45
2022/06/04 01:19:12;;;;;;;;;;;20.10;60.20;;;;;;5103997;28;19934;-44
2022/06/04 01:21:38;;;;;;;;;;;19.90;60.60;;;;;;5109213;28;20308;-45
2022/06/04 01:24:13;;;;;;;;;;;20.10;59.70;;;;;;5120091;28;20130;-45
2022/06/04 01:26:45;;;;;;;;;;;20.20;59.30;;;;;;5102485;28;19929;-45
2022/06/04 01:29:15;;;;;;;;;;;20.00;61.50;;;;;;5108843;28;20454;-47
2022/06/04 01:31:46;;;;;;;;;;;20.80;65.70;;;;;;5122069;28;19931;-47
2022/06/04 01:34:12;;;;;;;;;;;21.40;67.70;;;;;;5103825;28;20032;-49
2022/06/04 01:36:41;;;;;;;;;;;21.30;66.90;;;;;;5108932;28;19924;-48
2022/06/04 01:39:08;;;;;;;;;;;20.60;63.30;;;;;;5121726;28;20183;-47
2022/06/04 01:41:35;;;;;;;;;;;20.40;61.60;;;;;;5122980;28;19933;-52
2022/06/04 01:44:08;;;;;;;;;;;20.30;61.10;;;;;;5124095;28;19962;-46
2022/06/04 01:46:35;;;;;;;;;;;20.10;60.30;;;;;;5121271;28;19923;-47
2022/06/04 01:49:02;;;;;;;;;;;20.10;59.80;;;;;;5126806;28;20308;-45
2022/06/04 01:51:28;;;;;;;;;;;20.00;59.50;;;;;;5121567;28;20050;-45
2022/06/04 01:53:58;;;;;;;;;;;20.10;59.50;;;;;;5103274;28;20327;-46
2022/06/04 01:56:25;;;;;;;;;;;20.10;59.50;;;;;;5090659;28;20018;-46
2022/06/04 01:58:53;;;;;;;;;;;20.00;59.70;;;;;;5121582;28;19927;-48
2022/06/04 02:01:27;;;;;;;;;;;20.00;59.70;;;;;;5118865;28;19979;-45
2022/06/04 02:03:56;;;;;;;;;;;20.00;59.50;;;;;;5125848;28;19927;-45
2022/06/04 02:06:23;;;;;;;;;;;20.00;59.60;;;;;;5102622;28;20335;-45
2022/06/04 02:08:51;;;;;;;;;;;20.10;59.30;;;;;;5120805;27;19929;-46
2022/06/04 02:11:17;;;;;;;;;;;20.20;59.10;;;;;;5126719;28;19927;-47
2022/06/04 02:13:43;;;;;;;;;;;19.90;59.70;;;;;;5102124;28;20436;-46
2022/06/04 02:16:13;;;;;;;;;;;20.00;59.60;;;;;;5126952;28;19927;-45
2022/06/04 02:18:39;;;;;;;;;;;20.00;59.70;;;;;;5119592;28;20006;-44
2022/06/04 02:21:05;;;;;;;;;;;20.00;59.60;;;;;;5101096;28;20184;-46
2022/06/04 02:23:30;;;;;;;;;;;19.90;59.60;;;;;;5125936;28;19924;-45
2022/06/04 02:25:56;;;;;;;;;;;20.40;63.60;;;;;;5121077;28;20383;-47
2022/06/04 02:28:22;;;;;;;;;;;21.00;67.30;;;;;;5120873;28;20492;-46
2022/06/04 02:31:01;;;;;;;;;;;21.40;69.10;;;;;;5126485;28;20022;-47
2022/06/04 02:33:32;;;;;;;;;;;21.40;66.50;;;;;;5121168;28;19931;-45
2022/06/04 02:35:58;;;;;;;;;;;20.50;62.70;;;;;;5120666;28;19934;-44
2022/06/04 02:38:47;;;;;;;;;;;20.30;61.80;;;;;;5123831;28;19932;-45
2022/06/04 02:41:18;;;;;;;;;;;20.20;60.80;;;;;;5106720;28;19933;-45
2022/06/04 02:43:45;;;;;;;;;;;20.20;59.90;;;;;;5120472;28;19931;-45
2022/06/04 02:46:11;;;;;;;;;;;20.00;59.70;;;;;;5091157;28;19923;-44
2022/06/04 02:48:37;;;;;;;;;;;20.00;59.50;;;;;;5120736;28;19923;-46
2022/06/04 02:51:25;;;;;;;;;;;20.00;59.30;;;;;;5126250;28;19927;-46
2022/06/04 02:53:51;;;;;;;;;;;19.80;59.40;;;;;;5126095;28;19967;-46
2022/06/04 02:56:18;;;;;;;;;;;20.40;63.60;;;;;;5118320;28;19927;-47
2022/06/04 02:58:44;;;;;;;;;;;21.10;67.40;;;;;;5106800;28;19934;-47
2022/06/04 03:01:10;;;;;;;;;;;21.50;69.20;;;;;;5101967;28;20367;-45
2022/06/04 03:03:36;;;;;;;;;;;20.90;66.20;;;;;;5102114;28;20015;-46
2022/06/04 03:06:03;;;;;;;;;;;20.40;63.00;;;;;;5107772;28;19978;-44
2022/06/04 03:08:30;;;;;;;;;;;20.10;61.10;;;;;;5120504;28;20279;-47
2022/06/04 03:10:55;;;;;;;;;;;20.00;60.10;;;;;;5120367;28;20365;-45
2022/06/04 03:13:21;;;;;;;;;;;20.00;59.20;;;;;;5125087;28;20268;-51
2022/06/04 03:15:47;;;;;;;;;;;20.00;58.80;;;;;;5118356;28;19979;-44
2022/06/04 03:18:14;;;;;;;;;;;19.90;58.60;;;;;;5125332;27;20379;-53
2022/06/04 03:20:39;;;;;;;;;;;19.90;58.40;;;;;;5123774;28;20298;-45
2022/06/04 03:23:06;;;;;;;;;;;19.90;58.30;;;;;;5124009;28;19935;-45
2022/06/04 03:25:33;;;;;;;;;;;20.00;58.30;;;;;;5129527;28;20022;-45
2022/06/04 03:27:59;;;;;;;;;;;19.80;58.60;;;;;;5123958;28;20047;-46
2022/06/04 03:30:26;;;;;;;;;;;19.90;58.30;;;;;;5105542;28;19931;-46
2022/06/04 03:32:52;;;;;;;;;;;20.10;61.30;;;;;;5127198;28;20034;-45
2022/06/04 03:35:18;;;;;;;;;;;20.80;66.00;;;;;;5122811;28;20014;-47
2022/06/04 03:37:44;;;;;;;;;;;21.30;68.10;;;;;;5124846;28;20014;-51
2022/06/04 03:40:10;;;;;;;;;;;21.50;68.60;;;;;;5128188;28;19923;-47
2022/06/04 03:42:36;;;;;;;;;;;20.70;64.00;;;;;;5123712;28;19993;-45
2022/06/04 03:45:02;;;;;;;;;;;20.40;61.70;;;;;;5109246;28;19932;-46
2022/06/04 03:47:28;;;;;;;;;;;20.00;60.50;;;;;;5123663;28;19927;-44
2022/06/04 03:49:54;;;;;;;;;;;20.00;59.50;;;;;;5123071;28;19937;-49
2022/06/04 03:52:20;;;;;;;;;;;20.00;58.70;;;;;;5108083;28;19958;-45
2022/06/04 03:54:55;;;;;;;;;;;20.10;58.70;;;;;;5123043;28;20464;-44
2022/06/04 03:57:42;;;;;;;;;;;19.90;58.70;;;;;;5123311;28;20361;-45
2022/06/04 04:00:09;;;;;;;;;;;19.80;58.80;;;;;;5128974;28;19927;-45
2022/06/04 04:02:35;;;;;;;;;;;20.40;62.50;;;;;;5123387;28;19930;-44
2022/06/04 04:05:00;;;;;;;;;;;21.00;66.80;;;;;;5105013;28;19923;-46
2022/06/04 04:07:26;;;;;;;;;;;21.50;68.30;;;;;;5128703;28;19931;-46
2022/06/04 04:09:52;;;;;;;;;;;21.00;66.20;;;;;;5120790;28;19931;-47
2022/06/04 04:12:18;;;;;;;;;;;20.40;63.00;;;;;;5127673;28;19923;-46
2022/06/04 04:14:43;;;;;;;;;;;20.30;60.90;;;;;;5122910;28;19924;-45
2022/06/04 04:17:09;;;;;;;;;;;20.20;59.90;;;;;;5123344;28;19927;-44
2022/06/04 04:19:35;;;;;;;;;;;20.00;59.50;;;;;;5128792;28;19928;-45
2022/06/04 04:22:01;;;;;;;;;;;20.00;58.90;;;;;;5123123;28;19970;-44
2022/06/04 04:24:27;;;;;;;;;;;19.90;58.70;;;;;;5122807;28;20307;-44
2022/06/04 04:26:53;;;;;;;;;;;19.80;58.90;;;;;;5127557;28;21255;-53
2022/06/04 04:29:19;;;;;;;;;;;20.60;64.60;;;;;;5120895;28;20008;-46
2022/06/04 04:31:45;;;;;;;;;;;21.10;67.70;;;;;;5127733;27;19939;-49
2022/06/04 04:34:10;;;;;;;;;;;21.30;69.50;;;;;;5122949;28;19923;-49
2022/06/04 04:36:36;;;;;;;;;;;20.70;63.80;;;;;;5104525;28;20394;-45
2022/06/04 04:39:02;;;;;;;;;;;20.30;62.10;;;;;;5128368;28;19978;-45
2022/06/04 04:41:28;;;;;;;;;;;20.20;60.60;;;;;;5122878;28;19933;-45
2022/06/04 04:43:53;;;;;;;;;;;20.00;60.00;;;;;;5123280;28;19967;-44
2022/06/04 04:46:19;;;;;;;;;;;20.00;59.50;;;;;;5126508;28;19923;-47
2022/06/04 04:48:45;;;;;;;;;;;19.90;59.10;;;;;;5104047;28;19931;-47
2022/06/04 04:51:12;;;;;;;;;;;20.00;58.60;;;;;;5126846;28;20006;-49
2022/06/04 04:53:38;;;;;;;;;;;19.90;58.80;;;;;;5125868;28;20046;-43
2022/06/04 04:56:04;;;;;;;;;;;19.90;58.70;;;;;;5123772;28;19927;-43
2022/06/04 04:58:29;;;;;;;;;;;19.80;58.60;;;;;;5128449;28;20169;-45
2022/06/04 05:00:55;;;;;;;;;;;19.90;58.60;;;;;;5123512;28;19929;-44
2022/06/04 05:03:21;;;;;;;;;;;20.00;58.40;;;;;;5123298;28;20379;-45
2022/06/04 05:05:56;;;;;;;;;;;20.20;61.40;;;;;;5126864;28;19935;-45
2022/06/04 05:08:22;;;;;;;;;;;20.80;66.20;;;;;;5103090;28;19963;-44
2022/06/04 05:10:48;;;;;;;;;;;21.30;68.20;;;;;;5123110;28;19932;-44
2022/06/04 05:13:14;;;;;;;;;;;21.40;67.50;;;;;;5109628;28;20014;-44
2022/06/04 05:15:40;;;;;;;;;;;20.50;64.00;;;;;;5122204;28;19928;-45
2022/06/04 05:18:05;;;;;;;;;;;20.30;61.90;;;;;;5128008;28;20069;-44
2022/06/04 05:20:31;;;;;;;;;;;20.00;61.00;;;;;;5122115;28;19946;-43
2022/06/04 05:22:57;;;;;;;;;;;20.10;59.60;;;;;;5120225;28;20463;-44
2022/06/04 05:25:23;;;;;;;;;;;20.10;58.90;;;;;;5126122;28;19923;-44
2022/06/04 05:27:49;;;;;;;;;;;19.80;59.10;;;;;;5121778;28;19931;-44
2022/06/04 05:30:14;;;;;;;;;;;19.90;59.00;;;;;;5121791;28;19924;-43
2022/06/04 05:32:40;;;;;;;;;;;19.90;58.70;;;;;;5127617;28;19924;-44
2022/06/04 05:35:06;;;;;;;;;;;20.30;62.80;;;;;;5122083;28;20313;-47
2022/06/04 05:37:32;;;;;;;;;;;20.90;67.00;;;;;;5127343;28;20411;-44
2022/06/04 05:39:58;;;;;;;;;;;21.50;68.40;;;;;;5103659;28;19982;-49
2022/06/04 05:42:24;;;;;;;;;;;21.30;66.50;;;;;;5118609;27;19923;-46
2022/06/04 05:44:51;;;;;;;;;;;20.50;64.00;;;;;;5126555;28;19923;-44
2022/06/04 05:47:17;;;;;;;;;;;20.10;62.00;;;;;;5121529;28;20389;-43
2022/06/04 05:49:43;;;;;;;;;;;20.10;60.20;;;;;;5121673;28;20608;-43
2022/06/04 05:52:08;;;;;;;;;;;20.10;59.50;;;;;;5127072;28;19935;-43
2022/06/04 05:54:34;;;;;;;;;;;20.00;59.30;;;;;;5121677;28;20343;-45
2022/06/04 05:57:00;;;;;;;;;;;20.00;59.20;;;;;;5124886;28;19934;-54
2022/06/04 05:59:26;;;;;;;;;;;20.00;58.70;;;;;;5122420;28;19924;-45
2022/06/04 06:01:52;;;;;;;;;;;20.00;58.80;;;;;;5119956;28;19938;-43
2022/06/04 06:04:18;;;;;;;;;;;19.90;59.00;;;;;;5126519;28;19990;-46
2022/06/04 06:06:45;;;;;;;;;;;20.20;58.30;;;;;;5121301;28;19924;-45
2022/06/04 06:09:11;;;;;;;;;;;20.10;58.50;;;;;;5121420;28;20302;-44
2022/06/04 06:11:38;;;;;;;;;;;20.00;58.80;;;;;;5126849;28;19923;-44
2022/06/04 06:14:07;;;;;;;;;;;20.30;61.70;;;;;;5121255;28;19927;-45
2022/06/04 06:16:33;;;;;;;;;;;20.90;66.40;;;;;;5121086;28;20023;-46
2022/06/04 06:18:59;;;;;;;;;;;21.40;68.40;;;;;;5123789;28;19927;-45
2022/06/04 06:21:29;;;;;;;;;;;21.20;66.90;;;;;;5120544;28;19924;-44
2022/06/04 06:23:55;;;;;;;;;;;20.50;63.80;;;;;;5126320;28;19927;-45
2022/06/04 06:26:25;;;;;;;;;;;20.20;62.00;;;;;;5121113;28;19927;-44
2022/06/04 06:28:51;;;;;;;;;;;20.20;60.70;;;;;;5121024;28;20014;-45
2022/06/04 06:31:18;;;;;;;;;;;20.10;60.20;;;;;;5126570;28;20011;-44
2022/06/04 06:33:44;;;;;;;;;;;20.00;60.10;;;;;;5120742;28;19944;-44
2022/06/04 06:36:10;;;;;;;;;;;20.10;59.60;;;;;;5119289;28;20029;-44
2022/06/04 06:38:36;;;;;;;;;;;20.00;59.70;;;;;;5125011;28;19987;-45
2022/06/04 06:41:03;;;;;;;;;;;20.00;59.20;;;;;;5102067;28;19927;-43
2022/06/04 06:43:47;;;;;;;;;;;20.00;61.20;;;;;;5104943;28;19924;-55
2022/06/04 06:46:13;;;;;;;;;;;20.70;66.90;;;;;;5126298;28;19927;-43
2022/06/04 06:48:40;;;;;;;;;;;21.30;69.60;;;;;;5120864;28;20336;-43
2022/06/04 06:51:09;;;;;;;;;;;21.30;69.10;;;;;;5126331;28;19938;-46
2022/06/04 06:53:35;;;;;;;;;;;20.50;65.00;;;;;;5120999;27;19982;-46
2022/06/04 06:56:14;;;;;;;;;;;20.40;62.40;;;;;;5117857;28;19951;-44
2022/06/04 06:58:39;;;;;;;;;;;20.30;61.20;;;;;;5125793;28;19934;-42
2022/06/04 07:01:05;;;;;;;;;;;20.10;60.80;;;;;;5100326;28;20299;-41
2022/06/04 07:03:31;;;;;;;;;;;20.10;59.80;;;;;;5102184;28;19923;-43
2022/06/04 07:05:57;;;;;;;;;;;20.00;60.00;;;;;;5107832;28;19963;-43
2022/06/04 07:08:23;;;;;;;;;;;19.90;59.60;;;;;;5101222;28;20380;-42
2022/06/04 07:10:49;;;;;;;;;;;19.90;59.60;;;;;;5120677;28;20258;-43
2022/06/04 07:13:15;;;;;;;;;;;20.10;62.10;;;;;;5124127;28;20336;-43
2022/06/04 07:15:42;;;;;;;;;;;20.80;67.40;;;;;;5100838;28;20412;-42
2022/06/04 07:18:09;;;;;;;;;;;21.30;69.60;;;;;;5125686;28;19923;-44
2022/06/04 07:20:36;;;;;;;;;;;21.30;69.30;;;;;;5102180;28;20741;-44
2022/06/04 07:23:02;;;;;;;;;;;20.50;65.10;;;;;;5120254;28;19931;-45
2022/06/04 07:25:28;;;;;;;;;;;20.40;62.60;;;;;;5125789;28;20401;-43
2022/06/04 07:27:54;;;;;;;;;;;20.30;61.20;;;;;;5120307;28;20382;-43
2022/06/04 07:30:19;;;;;;;;;;;20.30;60.20;;;;;;5120020;28;20233;-50
2022/06/04 07:32:45;;;;;;;;;;;20.10;60.20;;;;;;5101830;28;21093;-47
2022/06/04 07:35:11;;;;;;;;;;;20.10;59.90;;;;;;5119602;28;19953;-43
2022/06/04 07:37:37;;;;;;;;;;;20.00;60.00;;;;;;5123829;28;20390;-51
2022/06/04 07:40:03;;;;;;;;;;;20.20;59.30;;;;;;5121906;28;20273;-43
2022/06/04 07:42:29;;;;;;;;;;;20.10;59.50;;;;;;5119998;28;20322;-44
2022/06/04 07:44:55;;;;;;;;;;;19.90;59.60;;;;;;5125725;28;19971;-43
2022/06/04 07:47:21;;;;;;;;;;;20.00;59.30;;;;;;5101403;28;19924;-43
2022/06/04 07:49:46;;;;;;;;;;;20.70;65.40;;;;;;5117972;28;19930;-46
2022/06/04 07:52:12;;;;;;;;;;;21.20;68.80;;;;;;5124348;28;19930;-46
2022/06/04 07:54:39;;;;;;;;;;;21.40;70.00;;;;;;5119807;28;20021;-45
2022/06/04 07:57:05;;;;;;;;;;;20.70;66.10;;;;;;5120797;28;19924;-52
2022/06/04 07:59:31;;;;;;;;;;;20.30;63.50;;;;;;5105639;28;19973;-43
2022/06/04 08:01:57;;;;;;;;;;;20.20;62.10;;;;;;5068405;28;19925;-44
2022/06/04 08:04:22;;;;;;;;;;;20.30;61.00;;;;;;5125151;27;19923;-43
2022/06/04 08:06:48;;;;;;;;;;;20.20;60.50;;;;;;5103602;28;20379;-47
2022/06/04 08:09:14;;;;;;;;;;;20.20;60.20;;;;;;5120428;28;19927;-45
2022/06/04 08:11:40;;;;;;;;;;;20.00;60.30;;;;;;5128053;28;20379;-43
2022/06/04 08:14:21;;;;;;;;;;;20.10;59.90;;;;;;5123131;28;20367;-45
2022/06/04 08:16:48;;;;;;;;;;;20.10;59.70;;;;;;5123164;28;20284;-42
2022/06/04 08:19:13;;;;;;;;;;;20.00;59.70;;;;;;5128608;28;19924;-44
2022/06/04 08:21:39;;;;;;;;;;;20.10;59.50;;;;;;5123193;28;19975;-44
2022/06/04 08:24:06;;;;;;;;;;;19.90;59.60;;;;;;5107907;28;19933;-52
2022/06/04 08:26:31;;;;;;;;;;;20.20;59.00;;;;;;5123774;28;19923;-44
2022/06/04 08:28:57;;;;;;;;;;;20.20;59.10;;;;;;5121756;28;19924;-43
2022/06/04 08:31:23;;;;;;;;;;;20.00;59.60;;;;;;5128100;28;19933;-43
2022/06/04 08:33:49;;;;;;;;;;;20.20;62.60;;;;;;5122837;28;19931;-44
2022/06/04 08:36:16;;;;;;;;;;;20.90;67.40;;;;;;5123021;28;19988;-45
2022/06/04 08:38:42;;;;;;;;;;;21.30;69.70;;;;;;5128339;28;20434;-45
2022/06/04 08:41:08;;;;;;;;;;;21.70;68.70;;;;;;5122577;28;19938;-46
2022/06/04 08:43:41;;;;;;;;;;;20.90;63.90;;;;;;5122935;28;19923;-53
2022/06/04 08:46:14;;;;;;;;;;;20.30;61.00;;;;;;5107157;28;19928;-46
2022/06/04 08:48:40;;;;;;;;;;;20.00;59.60;;;;;;5103411;28;19924;-46
2022/06/04 08:51:10;;;;;;;;;;;20.00;58.10;;;;;;5127657;28;19972;-52
2022/06/04 08:53:36;;;;;;;;;;;19.90;56.80;;;;;;5105325;28;19931;-47
2022/06/04 08:59:17;;;;;;;;;;;20.80;65.50;;;;;;5086214;28;19928;-54
2022/06/04 09:01:45;;;;;;;;;;;21.40;67.50;;;;;;5127777;28;19934;-46
2022/06/04 09:04:23;;;;;;;;;;;21.40;64.80;;;;;;5119679;28;19976;-45
2022/06/04 09:06:52;;;;;;;;;;;20.60;61.20;;;;;;5121893;28;20218;-50
2022/06/04 09:09:30;;;;;;;;;;;20.20;59.20;;;;;;5127462;28;19988;-46
2022/06/04 09:12:05;;;;;;;;;;;20.00;57.60;;;;;;5122613;28;20404;-45
2022/06/04 09:14:41;;;;;;;;;;;19.80;57.10;;;;;;5104977;28;19923;-53
2022/06/04 09:17:11;;;;;;;;;;;20.00;60.40;;;;;;5126898;27;19928;-46
2022/06/04 09:19:38;;;;;;;;;;;20.80;65.50;;;;;;5122036;28;19927;-52
2022/06/04 09:22:09;;;;;;;;;;;21.30;67.10;;;;;;5125361;28;20006;-51
2022/06/04 09:24:36;;;;;;;;;;;21.50;65.00;;;;;;5123759;28;20412;-45
2022/06/04 09:27:23;;;;;;;;;;;20.80;61.30;;;;;;5117726;28;20032;-46
2022/06/04 09:30:01;;;;;;;;;;;20.30;59.40;;;;;;5106943;28;20039;-54
2022/06/04 09:32:44;;;;;;;;;;;20.00;57.70;;;;;;5127520;28;19990;-48
2022/06/04 09:35:11;;;;;;;;;;;19.80;56.90;;;;;;5105268;28;19923;-46
2022/06/04 09:37:43;;;;;;;;;;;20.10;60.80;;;;;;5125899;28;20443;-53
2022/06/04 09:40:15;;;;;;;;;;;20.90;65.20;;;;;;5124599;28;19923;-45
2022/06/04 09:42:41;;;;;;;;;;;21.50;66.60;;;;;;5120626;28;19944;-45
2022/06/04 09:45:15;;;;;;;;;;;21.30;63.90;;;;;;5126879;28;20363;-46
2022/06/04 09:47:43;;;;;;;;;;;20.60;60.80;;;;;;5102313;28;19934;-46
2022/06/04 09:50:27;;;;;;;;;;;20.30;58.90;;;;;;5121658;28;20014;-46
2022/06/04 09:53:11;;;;;;;;;;;20.00;57.40;;;;;;5127251;28;20006;-46
2022/06/04 09:55:37;;;;;;;;;;;19.80;56.90;;;;;;5125918;28;20014;-45
2022/06/04 09:58:16;;;;;;;;;;;20.00;59.60;;;;;;5101612;28;20474;-46
2022/06/04 10:00:52;;;;;;;;;;;20.70;64.70;;;;;;5107180;28;20010;-49
2022/06/04 10:03:18;;;;;;;;;;;21.40;66.40;;;;;;5123731;28;19923;-44
2022/06/04 10:05:48;;;;;;;;;;;21.50;63.90;;;;;;5121259;28;19969;-43
2022/06/04 10:08:14;;;;;;;;;;;20.90;60.60;;;;;;5127069;28;20033;-45
2022/06/04 10:10:41;;;;;;;;;;;20.30;58.90;;;;;;5121545;28;19923;-45
2022/06/04 10:16:11;;;;;;;;;;;20.10;56.50;;;;;;5125782;28;20023;-44
2022/06/04 10:18:37;;;;;;;;;;;20.10;56.00;;;;;;5119370;28;20030;-44
2022/06/04 10:21:19;;;;;;;;;;;20.00;58.50;;;;;;5120728;28;20032;-47
2022/06/04 10:23:46;;;;;;;;;;;20.80;63.70;;;;;;5126439;28;19975;-44
2022/06/04 10:26:15;;;;;;;;;;;21.50;65.30;;;;;;5121006;28;20410;-46
2022/06/04 10:28:45;;;;;;;;;;;21.70;63.50;;;;;;5120718;27;20048;-47
2022/06/04 10:31:14;;;;;;;;;;;20.70;60.70;;;;;;5126371;28;20011;-44
2022/06/04 10:33:45;;;;;;;;;;;20.50;58.50;;;;;;5083931;28;20336;-46
2022/06/04 10:36:21;;;;;;;;;;;20.00;57.50;;;;;;5099838;28;20010;-47
2022/06/04 10:39:04;;;;;;;;;;;20.00;56.50;;;;;;5126011;28;20335;-44
2022/06/04 10:41:36;;;;;;;;;;;19.80;55.90;;;;;;5120845;28;20177;-45
2022/06/04 10:44:20;;;;;;;;;;;20.50;62.00;;;;;;5120971;28;19934;-46
2022/06/04 10:46:59;;;;;;;;;;;21.20;64.80;;;;;;5108155;28;20387;-44
2022/06/04 10:49:31;;;;;;;;;;;21.80;64.90;;;;;;5121128;28;19924;-48
2022/06/04 10:52:00;;;;;;;;;;;21.00;61.30;;;;;;5102504;28;20276;-49
2022/06/04 10:54:39;;;;;;;;;;;20.50;59.00;;;;;;5123683;28;19923;-44
2022/06/04 10:57:19;;;;;;;;;;;20.30;57.40;;;;;;5120240;28;19983;-45
2022/06/04 10:59:49;;;;;;;;;;;20.00;56.30;;;;;;5119645;28;21286;-45
2022/06/04 11:02:34;;;;;;;;;;;19.80;56.10;;;;;;5126051;28;19923;-45
2022/06/04 11:05:19;;;;;;;;;;;19.60;57.20;;;;;;5120682;28;19923;-45
2022/06/04 11:07:53;;;;;;;;;;;20.60;63.10;;;;;;5120730;28;20301;-44
2022/06/04 11:10:20;;;;;;;;;;;21.30;64.70;;;;;;5108126;28;19967;-46
2022/06/04 11:12:57;;;;;;;;;;;21.70;64.00;;;;;;5099523;28;20426;-47
2022/06/04 11:15:28;;;;;;;;;;;20.90;60.70;;;;;;5119911;28;19930;-45
2022/06/04 11:17:56;;;;;;;;;;;20.20;59.00;;;;;;5090460;28;19924;-44
2022/06/04 11:20:26;;;;;;;;;;;19.90;57.70;;;;;;5120540;28;19933;-46
2022/06/04 11:23:06;;;;;;;;;;;19.80;56.60;;;;;;5120432;28;19923;-47
2022/06/04 11:25:32;;;;;;;;;;;19.80;57.30;;;;;;5106288;28;19952;-45
2022/06/04 11:27:58;;;;;;;;;;;20.70;63.20;;;;;;5098151;28;20386;-46
2022/06/04 11:30:29;;;;;;;;;;;21.30;65.10;;;;;;5118595;28;19923;-44
2022/06/04 11:32:55;;;;;;;;;;;21.70;63.60;;;;;;5124294;28;19927;-44
2022/06/04 11:35:21;;;;;;;;;;;20.80;60.50;;;;;;5119759;28;19924;-45
2022/06/04 11:38:03;;;;;;;;;;;20.30;58.80;;;;;;5120173;28;19935;-52
2022/06/04 11:40:48;;;;;;;;;;;20.20;57.50;;;;;;5127114;27;20018;-44
2022/06/04 11:43:14;;;;;;;;;;;19.90;56.50;;;;;;5124094;28;20342;-46
2022/06/04 11:45:47;;;;;;;;;;;19.80;55.50;;;;;;5123736;28;19946;-46
2022/06/04 11:48:32;;;;;;;;;;;20.30;61.80;;;;;;5109303;28;20410;-47
2022/06/04 11:50:57;;;;;;;;;;;21.10;64.60;;;;;;5122410;28;19923;-46
2022/06/04 11:53:36;;;;;;;;;;;21.80;64.90;;;;;;5123108;28;20193;-46
2022/06/04 11:56:10;;;;;;;;;;;21.20;61.50;;;;;;5110557;28;19933;-45
2022/06/04 11:58:50;;;;;;;;;;;20.30;59.60;;;;;;5123594;28;19924;-46
2022/06/04 12:01:16;;;;;;;;;;;20.10;57.70;;;;;;5105329;28;19923;-47
2022/06/04 12:03:47;;;;;;;;;;;19.80;56.90;;;;;;5129020;28;19938;-50
2022/06/04 12:06:20;;;;;;;;;;;19.70;56.30;;;;;;5122529;28;19935;-53
2022/06/04 12:08:48;;;;;;;;;;;19.80;57.60;;;;;;5121239;28;20123;-50
2022/06/04 12:11:29;;;;;;;;;;;20.70;63.50;;;;;;5128358;28;20316;-46
2022/06/04 12:13:57;;;;;;;;;;;21.30;64.90;;;;;;5122930;28;20382;-51
2022/06/04 12:16:26;;;;;;;;;;;21.70;63.60;;;;;;5107424;28;20007;-51
2022/06/04 12:18:56;;;;;;;;;;;21.00;60.90;;;;;;5109613;28;19996;-44
2022/06/04 12:24:18;;;;;;;;;;;20.10;57.60;;;;;;5125993;28;20026;-51
2022/06/04 12:26:48;;;;;;;;;;;20.10;56.10;;;;;;5125925;28;20267;-44
2022/06/04 12:29:31;;;;;;;;;;;19.80;55.80;;;;;;5122531;28;19980;-47
2022/06/04 12:31:57;;;;;;;;;;;20.30;59.40;;;;;;5123174;28;20150;-51
2022/06/04 12:34:29;;;;;;;;;;;21.00;64.40;;;;;;5128753;28;19924;-45
2022/06/04 12:36:55;;;;;;;;;;;21.50;65.00;;;;;;5104827;28;20405;-45
2022/06/04 12:39:22;;;;;;;;;;;21.30;62.50;;;;;;5128695;28;20014;-44
2022/06/04 12:41:48;;;;;;;;;;;20.60;60.10;;;;;;5122625;28;19946;-45
2022/06/04 12:44:18;;;;;;;;;;;20.30;58.10;;;;;;5120678;28;19931;-46
2022/06/04 12:46:46;;;;;;;;;;;20.20;57.30;;;;;;5108774;28;19930;-44
2022/06/04 12:49:15;;;;;;;;;;;19.80;56.50;;;;;;5122247;28;20010;-44
2022/06/04 12:51:49;;;;;;;;;;;19.80;55.80;;;;;;5122628;27;19945;-46
2022/06/04 12:54:35;;;;;;;;;;;20.30;61.40;;;;;;5128011;28;19995;-46
2022/06/04 12:57:12;;;;;;;;;;;21.10;64.60;;;;;;5122883;28;19963;-44
2022/06/04 12:59:37;;;;;;;;;;;21.70;65.00;;;;;;5104140;28;19930;-46
2022/06/04 13:02:22;;;;;;;;;;;21.00;61.10;;;;;;5126082;28;20279;-46
2022/06/04 13:04:48;;;;;;;;;;;20.50;59.40;;;;;;5121137;28;19931;-45
2022/06/04 13:07:24;;;;;;;;;;;20.10;57.50;;;;;;5122159;28;19934;-45
2022/06/04 13:10:03;;;;;;;;;;;20.00;56.60;;;;;;5127626;28;19923;-46
2022/06/04 13:12:38;;;;;;;;;;;19.90;56.00;;;;;;5122390;28;19923;-46
2022/06/04 13:15:06;;;;;;;;;;;19.80;57.00;;;;;;5122575;28;19977;-46
2022/06/04 13:17:37;;;;;;;;;;;20.60;62.90;;;;;;5109412;28;19923;-45
2022/06/04 13:20:06;;;;;;;;;;;21.30;64.60;;;;;;5102404;28;20006;-45
2022/06/04 13:22:33;;;;;;;;;;;21.80;63.60;;;;;;5102063;28;19934;-47
2022/06/04 13:24:59;;;;;;;;;;;21.00;60.90;;;;;;5109106;28;19923;-44
2022/06/04 13:27:33;;;;;;;;;;;20.30;58.70;;;;;;5103727;28;20394;-43
2022/06/04 13:29:58;;;;;;;;;;;20.20;57.40;;;;;;5123412;28;20298;-55
2022/06/04 13:32:24;;;;;;;;;;;19.90;56.40;;;;;;5126841;28;19949;-45
2022/06/04 13:34:50;;;;;;;;;;;19.80;55.90;;;;;;5121943;28;20371;-47
2022/06/04 13:37:21;;;;;;;;;;;20.10;59.10;;;;;;5127415;28;19927;-49
2022/06/04 13:39:47;;;;;;;;;;;20.80;63.60;;;;;;5101195;28;20323;-47
2022/06/04 13:42:40;;;;;;;;;;;21.50;64.40;;;;;;5086172;28;19927;-45
2022/06/04 13:45:08;;;;;;;;;;;21.50;62.60;;;;;;5118425;28;20053;-47
2022/06/04 13:47:36;;;;;;;;;;;20.80;59.80;;;;;;5121784;28;20430;-45
2022/06/04 13:50:15;;;;;;;;;;;20.50;57.70;;;;;;5121647;28;19973;-45
2022/06/04 13:52:47;;;;;;;;;;;20.30;56.60;;;;;;5127273;28;19972;-45
2022/06/04 13:55:22;;;;;;;;;;;19.90;55.70;;;;;;5121733;28;19924;-45
2022/06/04 13:57:48;;;;;;;;;;;19.90;57.40;;;;;;5119382;28;19927;-45
2022/06/04 14:00:24;;;;;;;;;;;20.80;63.00;;;;;;5126118;28;20375;-49
2022/06/04 14:03:01;;;;;;;;;;;21.40;64.30;;;;;;5120633;27;19934;-45
2022/06/04 14:05:44;;;;;;;;;;;21.70;62.90;;;;;;5121519;28;19998;-46
2022/06/04 14:08:13;;;;;;;;;;;20.60;60.10;;;;;;5127008;28;20033;-45
2022/06/04 14:10:39;;;;;;;;;;;20.50;58.00;;;;;;5121421;28;19938;-46
2022/06/04 14:13:08;;;;;;;;;;;20.20;56.70;;;;;;5121231;28;19946;-46
2022/06/04 14:15:38;;;;;;;;;;;20.00;55.90;;;;;;5125164;28;19927;-47
2022/06/04 14:18:13;;;;;;;;;;;19.70;55.50;;;;;;5120098;28;19933;-46
2022/06/04 14:20:38;;;;;;;;;;;20.00;58.80;;;;;;5120848;28;20102;-47
2022/06/04 14:23:07;;;;;;;;;;;20.90;63.30;;;;;;5126664;28;19942;-45
2022/06/04 14:25:36;;;;;;;;;;;21.60;63.90;;;;;;5121382;28;20447;-44
2022/06/04 14:28:06;;;;;;;;;;;21.50;61.80;;;;;;5122672;28;19933;-54
2022/06/04 14:30:40;;;;;;;;;;;20.80;59.80;;;;;;5126763;28;20014;-45
2022/06/04 14:33:15;;;;;;;;;;;20.40;57.90;;;;;;5100590;28;20006;-47
2022/06/04 14:35:41;;;;;;;;;;;20.30;56.40;;;;;;5123042;28;19935;-54
2022/06/04 14:38:10;;;;;;;;;;;20.00;55.90;;;;;;5122848;28;19987;-46
2022/06/04 14:40:39;;;;;;;;;;;20.10;54.90;;;;;;5121070;28;19929;-45
2022/06/04 14:43:29;;;;;;;;;;;20.40;60.40;;;;;;5106637;28;20394;-45